sensor_id;sensor_type;location;lat;lon;timestamp;P1;durP1;ratioP1;P2;durP2;ratioP2
35715;SDS011;21840;44.920;8.616;2023-07-08T00:00:50;13.35;;;6.45;;
35715;SDS011;21840;44.920;8.616;2023-07-08T00:03:16;15.15;;;5.75;;
35715;SDS011;21840;44.920;8.616;2023-07-08T00:05:42;11.85;;;5.82;;
35715;SDS011;21840;44.920;8.616;2023-07-08T00:08:15;9.68;;;5.80;;
35715;SDS011;21840;44.920;8.616;2023-07-08T00:10:42;12.27;;;6.20;;
35715;SDS011;21840;44.920;8.616;2023-07-08T00:13:08;16.90;;;6.50;;
35715;SDS011;21840;44.920;8.616;2023-07-08T00:15:35;10.40;;;5.60;;
35715;SDS011;21840;44.920;8.616;2023-07-08T00:18:01;13.52;;;5.68;;
35715;SDS011;21840;44.920;8.616;2023-07-08T00:23:04;10.57;;;5.95;;
35715;SDS011;21840;44.920;8.616;2023-07-08T00:25:30;12.18;;;6.15;;
35715;SDS011;21840;44.920;8.616;2023-07-08T00:27:57;16.13;;;6.53;;
35715;SDS011;21840;44.920;8.616;2023-07-08T00:30:24;12.35;;;6.43;;
35715;SDS011;21840;44.920;8.616;2023-07-08T00:32:51;16.50;;;5.60;;
35715;SDS011;21840;44.920;8.616;2023-07-08T00:37:58;10.68;;;5.63;;
35715;SDS011;21840;44.920;8.616;2023-07-08T00:40:30;17.35;;;6.40;;
35715;SDS011;21840;44.920;8.616;2023-07-08T00:43:01;9.43;;;5.75;;
35715;SDS011;21840;44.920;8.616;2023-07-08T00:45:42;17.25;;;6.63;;
35715;SDS011;21840;44.920;8.616;2023-07-08T00:48:25;15.88;;;6.60;;
35715;SDS011;21840;44.920;8.616;2023-07-08T00:50:55;12.50;;;6.57;;
35715;SDS011;21840;44.920;8.616;2023-07-08T00:53:31;10.48;;;5.82;;
35715;SDS011;21840;44.920;8.616;2023-07-08T00:58:39;15.38;;;6.80;;
35715;SDS011;21840;44.920;8.616;2023-07-08T01:01:10;12.30;;;6.43;;
35715;SDS011;21840;44.920;8.616;2023-07-08T01:04:00;13.70;;;6.70;;
35715;SDS011;21840;44.920;8.616;2023-07-08T01:06:30;12.38;;;6.22;;
35715;SDS011;21840;44.920;8.616;2023-07-08T01:09:01;12.25;;;6.18;;
35715;SDS011;21840;44.920;8.616;2023-07-08T01:11:31;12.60;;;6.38;;
35715;SDS011;21840;44.920;8.616;2023-07-08T01:13:58;13.13;;;6.35;;
35715;SDS011;21840;44.920;8.616;2023-07-08T01:16:26;11.90;;;6.05;;
35715;SDS011;21840;44.920;8.616;2023-07-08T01:18:51;11.02;;;6.47;;
35715;SDS011;21840;44.920;8.616;2023-07-08T01:21:28;10.18;;;6.10;;
35715;SDS011;21840;44.920;8.616;2023-07-08T01:23:58;11.57;;;6.68;;
35715;SDS011;21840;44.920;8.616;2023-07-08T01:26:26;11.48;;;7.03;;
35715;SDS011;21840;44.920;8.616;2023-07-08T01:28:53;11.60;;;6.22;;
35715;SDS011;21840;44.920;8.616;2023-07-08T01:31:21;17.55;;;6.70;;
35715;SDS011;21840;44.920;8.616;2023-07-08T01:33:48;13.00;;;6.55;;
35715;SDS011;21840;44.920;8.616;2023-07-08T01:36:16;15.63;;;7.07;;
35715;SDS011;21840;44.920;8.616;2023-07-08T01:38:42;16.80;;;6.47;;
35715;SDS011;21840;44.920;8.616;2023-07-08T01:41:10;13.23;;;6.28;;
35715;SDS011;21840;44.920;8.616;2023-07-08T01:43:37;11.40;;;6.65;;
35715;SDS011;21840;44.920;8.616;2023-07-08T01:46:03;12.98;;;6.65;;
35715;SDS011;21840;44.920;8.616;2023-07-08T01:48:34;16.75;;;6.95;;
35715;SDS011;21840;44.920;8.616;2023-07-08T01:51:04;12.43;;;6.40;;
35715;SDS011;21840;44.920;8.616;2023-07-08T01:53:49;20.92;;;7.47;;
35715;SDS011;21840;44.920;8.616;2023-07-08T01:56:16;14.25;;;7.10;;
35715;SDS011;21840;44.920;8.616;2023-07-08T01:58:41;17.08;;;6.72;;
35715;SDS011;21840;44.920;8.616;2023-07-08T02:01:07;12.48;;;6.22;;
35715;SDS011;21840;44.920;8.616;2023-07-08T02:03:33;16.10;;;6.30;;
35715;SDS011;21840;44.920;8.616;2023-07-08T02:05:58;13.15;;;6.97;;
35715;SDS011;21840;44.920;8.616;2023-07-08T02:08:24;16.00;;;6.70;;
35715;SDS011;21840;44.920;8.616;2023-07-08T02:10:51;14.88;;;6.32;;
35715;SDS011;21840;44.920;8.616;2023-07-08T02:13:18;8.13;;;5.90;;
35715;SDS011;21840;44.920;8.616;2023-07-08T02:15:46;12.55;;;5.97;;
35715;SDS011;21840;44.920;8.616;2023-07-08T02:18:12;15.02;;;5.68;;
35715;SDS011;21840;44.920;8.616;2023-07-08T02:20:38;11.50;;;5.65;;
35715;SDS011;21840;44.920;8.616;2023-07-08T02:23:03;10.27;;;5.82;;
35715;SDS011;21840;44.920;8.616;2023-07-08T02:25:29;14.70;;;6.32;;
35715;SDS011;21840;44.920;8.616;2023-07-08T02:27:54;16.58;;;6.25;;
35715;SDS011;21840;44.920;8.616;2023-07-08T02:30:22;12.13;;;5.93;;
35715;SDS011;21840;44.920;8.616;2023-07-08T02:32:48;12.05;;;6.40;;
35715;SDS011;21840;44.920;8.616;2023-07-08T02:35:21;19.35;;;7.38;;
35715;SDS011;21840;44.920;8.616;2023-07-08T02:37:48;19.77;;;7.05;;
35715;SDS011;21840;44.920;8.616;2023-07-08T02:40:13;12.52;;;6.82;;
35715;SDS011;21840;44.920;8.616;2023-07-08T02:42:39;12.50;;;6.20;;
35715;SDS011;21840;44.920;8.616;2023-07-08T02:45:05;13.15;;;6.90;;
35715;SDS011;21840;44.920;8.616;2023-07-08T02:47:31;11.50;;;6.43;;
35715;SDS011;21840;44.920;8.616;2023-07-08T02:49:56;15.05;;;7.43;;
35715;SDS011;21840;44.920;8.616;2023-07-08T02:52:22;12.70;;;9.15;;
35715;SDS011;21840;44.920;8.616;2023-07-08T02:54:50;17.80;;;10.07;;
35715;SDS011;21840;44.920;8.616;2023-07-08T02:57:15;14.43;;;9.77;;
35715;SDS011;21840;44.920;8.616;2023-07-08T02:59:41;14.35;;;9.48;;
35715;SDS011;21840;44.920;8.616;2023-07-08T03:02:06;15.77;;;8.52;;
35715;SDS011;21840;44.920;8.616;2023-07-08T03:04:32;15.25;;;8.32;;
35715;SDS011;21840;44.920;8.616;2023-07-08T03:06:57;20.77;;;7.88;;
35715;SDS011;21840;44.920;8.616;2023-07-08T03:09:23;17.27;;;10.05;;
35715;SDS011;21840;44.920;8.616;2023-07-08T03:11:48;17.50;;;8.98;;
35715;SDS011;21840;44.920;8.616;2023-07-08T03:14:13;18.92;;;9.82;;
35715;SDS011;21840;44.920;8.616;2023-07-08T03:16:39;20.35;;;10.05;;
35715;SDS011;21840;44.920;8.616;2023-07-08T03:19:04;19.50;;;11.30;;
35715;SDS011;21840;44.920;8.616;2023-07-08T03:21:30;16.73;;;11.07;;
35715;SDS011;21840;44.920;8.616;2023-07-08T03:23:56;20.00;;;11.02;;
35715;SDS011;21840;44.920;8.616;2023-07-08T03:26:23;17.75;;;9.63;;
35715;SDS011;21840;44.920;8.616;2023-07-08T03:28:51;18.10;;;10.57;;
35715;SDS011;21840;44.920;8.616;2023-07-08T03:31:18;21.80;;;12.02;;
35715;SDS011;21840;44.920;8.616;2023-07-08T03:33:45;17.70;;;11.18;;
35715;SDS011;21840;44.920;8.616;2023-07-08T03:36:12;17.25;;;11.15;;
35715;SDS011;21840;44.920;8.616;2023-07-08T03:38:48;18.65;;;12.18;;
35715;SDS011;21840;44.920;8.616;2023-07-08T03:41:15;21.55;;;12.15;;
35715;SDS011;21840;44.920;8.616;2023-07-08T03:43:40;18.83;;;12.75;;
35715;SDS011;21840;44.920;8.616;2023-07-08T03:46:07;24.20;;;12.75;;
35715;SDS011;21840;44.920;8.616;2023-07-08T03:48:40;23.13;;;13.43;;
35715;SDS011;21840;44.920;8.616;2023-07-08T03:51:08;22.88;;;13.68;;
35715;SDS011;21840;44.920;8.616;2023-07-08T03:53:40;20.55;;;14.10;;
35715;SDS011;21840;44.920;8.616;2023-07-08T03:56:07;21.85;;;13.07;;
35715;SDS011;21840;44.920;8.616;2023-07-08T03:58:37;25.20;;;15.68;;
35715;SDS011;21840;44.920;8.616;2023-07-08T04:01:03;26.05;;;14.43;;
35715;SDS011;21840;44.920;8.616;2023-07-08T04:03:29;23.38;;;15.38;;
35715;SDS011;21840;44.920;8.616;2023-07-08T04:05:55;18.90;;;13.35;;
35715;SDS011;21840;44.920;8.616;2023-07-08T04:08:21;22.80;;;15.88;;
35715;SDS011;21840;44.920;8.616;2023-07-08T04:10:46;25.60;;;14.85;;
35715;SDS011;21840;44.920;8.616;2023-07-08T04:13:12;22.40;;;14.35;;
35715;SDS011;21840;44.920;8.616;2023-07-08T04:15:37;21.13;;;14.82;;
35715;SDS011;21840;44.920;8.616;2023-07-08T04:18:03;24.15;;;14.68;;
35715;SDS011;21840;44.920;8.616;2023-07-08T04:20:29;19.63;;;13.77;;
35715;SDS011;21840;44.920;8.616;2023-07-08T04:22:54;29.02;;;13.48;;
35715;SDS011;21840;44.920;8.616;2023-07-08T04:25:20;22.00;;;14.38;;
35715;SDS011;21840;44.920;8.616;2023-07-08T04:27:46;23.60;;;14.73;;
35715;SDS011;21840;44.920;8.616;2023-07-08T04:30:22;19.80;;;14.00;;
35715;SDS011;21840;44.920;8.616;2023-07-08T04:32:50;25.10;;;14.38;;
35715;SDS011;21840;44.920;8.616;2023-07-08T04:35:19;22.48;;;14.25;;
35715;SDS011;21840;44.920;8.616;2023-07-08T04:37:44;24.55;;;14.85;;
35715;SDS011;21840;44.920;8.616;2023-07-08T04:40:17;21.40;;;14.32;;
35715;SDS011;21840;44.920;8.616;2023-07-08T04:42:44;26.92;;;15.80;;
35715;SDS011;21840;44.920;8.616;2023-07-08T04:45:12;26.63;;;15.45;;
35715;SDS011;21840;44.920;8.616;2023-07-08T04:47:39;28.90;;;15.02;;
35715;SDS011;21840;44.920;8.616;2023-07-08T04:50:04;22.70;;;14.70;;
35715;SDS011;21840;44.920;8.616;2023-07-08T04:52:30;23.80;;;14.45;;
35715;SDS011;21840;44.920;8.616;2023-07-08T04:54:56;22.63;;;15.07;;
35715;SDS011;21840;44.920;8.616;2023-07-08T04:57:21;24.27;;;14.82;;
35715;SDS011;21840;44.920;8.616;2023-07-08T04:59:47;20.30;;;14.07;;
35715;SDS011;21840;44.920;8.616;2023-07-08T05:02:12;24.67;;;15.13;;
35715;SDS011;21840;44.920;8.616;2023-07-08T05:04:39;30.85;;;14.20;;
35715;SDS011;21840;44.920;8.616;2023-07-08T05:07:04;24.83;;;14.27;;
35715;SDS011;21840;44.920;8.616;2023-07-08T05:09:30;23.77;;;14.07;;
35715;SDS011;21840;44.920;8.616;2023-07-08T05:11:56;25.13;;;14.70;;
35715;SDS011;21840;44.920;8.616;2023-07-08T05:14:22;24.33;;;13.82;;
35715;SDS011;21840;44.920;8.616;2023-07-08T05:16:47;25.88;;;14.20;;
35715;SDS011;21840;44.920;8.616;2023-07-08T05:19:13;24.60;;;14.63;;
35715;SDS011;21840;44.920;8.616;2023-07-08T05:21:39;23.52;;;13.75;;
35715;SDS011;21840;44.920;8.616;2023-07-08T05:24:04;23.77;;;14.70;;
35715;SDS011;21840;44.920;8.616;2023-07-08T05:26:30;21.60;;;13.63;;
35715;SDS011;21840;44.920;8.616;2023-07-08T05:28:57;21.38;;;14.02;;
35715;SDS011;21840;44.920;8.616;2023-07-08T05:31:22;22.65;;;14.38;;
35715;SDS011;21840;44.920;8.616;2023-07-08T05:33:48;19.58;;;14.35;;
35715;SDS011;21840;44.920;8.616;2023-07-08T05:36:13;25.55;;;15.25;;
35715;SDS011;21840;44.920;8.616;2023-07-08T05:38:39;26.20;;;15.02;;
35715;SDS011;21840;44.920;8.616;2023-07-08T05:41:04;25.50;;;13.80;;
35715;SDS011;21840;44.920;8.616;2023-07-08T05:43:31;24.88;;;15.10;;
35715;SDS011;21840;44.920;8.616;2023-07-08T05:45:57;19.83;;;13.35;;
35715;SDS011;21840;44.920;8.616;2023-07-08T05:48:27;21.02;;;14.32;;
35715;SDS011;21840;44.920;8.616;2023-07-08T05:50:52;19.77;;;12.95;;
35715;SDS011;21840;44.920;8.616;2023-07-08T05:53:18;22.55;;;14.45;;
35715;SDS011;21840;44.920;8.616;2023-07-08T05:55:45;26.70;;;14.77;;
35715;SDS011;21840;44.920;8.616;2023-07-08T05:58:13;27.98;;;14.88;;
35715;SDS011;21840;44.920;8.616;2023-07-08T06:00:41;24.55;;;14.13;;
35715;SDS011;21840;44.920;8.616;2023-07-08T06:03:07;21.35;;;14.73;;
35715;SDS011;21840;44.920;8.616;2023-07-08T06:05:33;23.55;;;14.15;;
35715;SDS011;21840;44.920;8.616;2023-07-08T06:07:59;23.73;;;14.63;;
35715;SDS011;21840;44.920;8.616;2023-07-08T06:10:24;23.88;;;13.23;;
35715;SDS011;21840;44.920;8.616;2023-07-08T06:12:50;28.33;;;15.23;;
35715;SDS011;21840;44.920;8.616;2023-07-08T06:15:17;20.30;;;13.23;;
35715;SDS011;21840;44.920;8.616;2023-07-08T06:17:42;21.98;;;14.15;;
35715;SDS011;21840;44.920;8.616;2023-07-08T06:20:08;28.17;;;15.65;;
35715;SDS011;21840;44.920;8.616;2023-07-08T06:22:33;20.77;;;13.32;;
35715;SDS011;21840;44.920;8.616;2023-07-08T06:24:59;21.98;;;13.57;;
35715;SDS011;21840;44.920;8.616;2023-07-08T06:27:24;20.25;;;13.02;;
35715;SDS011;21840;44.920;8.616;2023-07-08T06:29:50;21.25;;;12.55;;
35715;SDS011;21840;44.920;8.616;2023-07-08T06:32:15;21.92;;;13.75;;
35715;SDS011;21840;44.920;8.616;2023-07-08T06:34:41;20.13;;;13.23;;
35715;SDS011;21840;44.920;8.616;2023-07-08T06:37:07;26.65;;;13.73;;
35715;SDS011;21840;44.920;8.616;2023-07-08T06:39:32;24.40;;;13.18;;
35715;SDS011;21840;44.920;8.616;2023-07-08T06:41:58;20.63;;;12.63;;
35715;SDS011;21840;44.920;8.616;2023-07-08T06:44:30;23.70;;;13.23;;
35715;SDS011;21840;44.920;8.616;2023-07-08T06:46:55;20.52;;;13.52;;
35715;SDS011;21840;44.920;8.616;2023-07-08T06:49:21;19.73;;;13.20;;
35715;SDS011;21840;44.920;8.616;2023-07-08T06:51:46;21.40;;;13.07;;
35715;SDS011;21840;44.920;8.616;2023-07-08T06:54:12;23.60;;;13.25;;
35715;SDS011;21840;44.920;8.616;2023-07-08T06:56:38;20.45;;;13.27;;
35715;SDS011;21840;44.920;8.616;2023-07-08T06:59:05;26.38;;;11.70;;
35715;SDS011;21840;44.920;8.616;2023-07-08T07:01:31;21.13;;;11.93;;
35715;SDS011;21840;44.920;8.616;2023-07-08T07:03:56;23.27;;;11.55;;
35715;SDS011;21840;44.920;8.616;2023-07-08T07:06:22;22.42;;;12.27;;
35715;SDS011;21840;44.920;8.616;2023-07-08T07:08:48;20.08;;;12.02;;
35715;SDS011;21840;44.920;8.616;2023-07-08T07:11:13;19.98;;;11.25;;
35715;SDS011;21840;44.920;8.616;2023-07-08T07:13:39;18.00;;;11.05;;
35715;SDS011;21840;44.920;8.616;2023-07-08T07:16:04;20.20;;;12.02;;
35715;SDS011;21840;44.920;8.616;2023-07-08T07:18:30;19.42;;;12.60;;
35715;SDS011;21840;44.920;8.616;2023-07-08T07:20:55;20.33;;;12.65;;
35715;SDS011;21840;44.920;8.616;2023-07-08T07:23:23;19.88;;;11.40;;
35715;SDS011;21840;44.920;8.616;2023-07-08T07:25:49;18.10;;;11.65;;
35715;SDS011;21840;44.920;8.616;2023-07-08T07:28:15;19.77;;;11.43;;
35715;SDS011;21840;44.920;8.616;2023-07-08T07:30:42;19.25;;;11.18;;
35715;SDS011;21840;44.920;8.616;2023-07-08T07:33:09;19.25;;;11.32;;
35715;SDS011;21840;44.920;8.616;2023-07-08T07:35:43;21.58;;;12.45;;
35715;SDS011;21840;44.920;8.616;2023-07-08T07:38:09;24.52;;;13.45;;
35715;SDS011;21840;44.920;8.616;2023-07-08T07:40:35;21.63;;;11.45;;
35715;SDS011;21840;44.920;8.616;2023-07-08T07:43:01;19.38;;;10.27;;
35715;SDS011;21840;44.920;8.616;2023-07-08T07:45:26;17.80;;;11.70;;
35715;SDS011;21840;44.920;8.616;2023-07-08T07:47:52;17.95;;;11.82;;
35715;SDS011;21840;44.920;8.616;2023-07-08T07:50:17;27.40;;;12.10;;
35715;SDS011;21840;44.920;8.616;2023-07-08T07:52:43;19.17;;;11.40;;
35715;SDS011;21840;44.920;8.616;2023-07-08T07:55:08;18.55;;;11.52;;
35715;SDS011;21840;44.920;8.616;2023-07-08T07:57:34;22.17;;;12.93;;
35715;SDS011;21840;44.920;8.616;2023-07-08T07:59:59;19.27;;;11.80;;
35715;SDS011;21840;44.920;8.616;2023-07-08T08:02:25;19.88;;;11.85;;
35715;SDS011;21840;44.920;8.616;2023-07-08T08:04:50;28.58;;;12.32;;
35715;SDS011;21840;44.920;8.616;2023-07-08T08:07:16;19.95;;;11.50;;
35715;SDS011;21840;44.920;8.616;2023-07-08T08:09:42;17.80;;;10.93;;
35715;SDS011;21840;44.920;8.616;2023-07-08T08:12:08;30.17;;;12.65;;
35715;SDS011;21840;44.920;8.616;2023-07-08T08:14:35;18.17;;;11.90;;
35715;SDS011;21840;44.920;8.616;2023-07-08T08:17:01;22.52;;;11.50;;
35715;SDS011;21840;44.920;8.616;2023-07-08T08:19:27;25.25;;;11.65;;
35715;SDS011;21840;44.920;8.616;2023-07-08T08:21:53;23.45;;;12.00;;
35715;SDS011;21840;44.920;8.616;2023-07-08T08:24:18;17.10;;;10.80;;
35715;SDS011;21840;44.920;8.616;2023-07-08T08:26:44;23.67;;;11.90;;
35715;SDS011;21840;44.920;8.616;2023-07-08T08:29:10;22.33;;;11.50;;
35715;SDS011;21840;44.920;8.616;2023-07-08T08:31:35;19.95;;;11.05;;
35715;SDS011;21840;44.920;8.616;2023-07-08T08:34:01;28.50;;;10.77;;
35715;SDS011;21840;44.920;8.616;2023-07-08T08:36:26;16.63;;;10.82;;
35715;SDS011;21840;44.920;8.616;2023-07-08T08:38:54;15.85;;;10.88;;
35715;SDS011;21840;44.920;8.616;2023-07-08T08:41:21;15.75;;;10.57;;
35715;SDS011;21840;44.920;8.616;2023-07-08T08:44:00;20.33;;;10.90;;
35715;SDS011;21840;44.920;8.616;2023-07-08T08:51:47;20.70;;;10.55;;
35715;SDS011;21840;44.920;8.616;2023-07-08T08:54:13;22.80;;;10.38;;
35715;SDS011;21840;44.920;8.616;2023-07-08T08:56:41;15.48;;;9.73;;
35715;SDS011;21840;44.920;8.616;2023-07-08T09:02:36;18.15;;;9.82;;
35715;SDS011;21840;44.920;8.616;2023-07-08T09:05:08;14.55;;;9.45;;
35715;SDS011;21840;44.920;8.616;2023-07-08T09:07:42;18.38;;;9.30;;
35715;SDS011;21840;44.920;8.616;2023-07-08T09:13:11;16.83;;;9.25;;
35715;SDS011;21840;44.920;8.616;2023-07-08T09:15:42;13.88;;;8.68;;
35715;SDS011;21840;44.920;8.616;2023-07-08T09:18:14;14.90;;;9.25;;
35715;SDS011;21840;44.920;8.616;2023-07-08T09:20:45;17.73;;;9.38;;
35715;SDS011;21840;44.920;8.616;2023-07-08T09:25:43;16.60;;;9.13;;
35715;SDS011;21840;44.920;8.616;2023-07-08T09:28:14;16.70;;;9.40;;
35715;SDS011;21840;44.920;8.616;2023-07-08T09:30:40;14.80;;;8.13;;
35715;SDS011;21840;44.920;8.616;2023-07-08T09:33:07;22.13;;;9.40;;
35715;SDS011;21840;44.920;8.616;2023-07-08T09:35:40;16.90;;;10.18;;
35715;SDS011;21840;44.920;8.616;2023-07-08T09:38:16;18.17;;;9.25;;
35715;SDS011;21840;44.920;8.616;2023-07-08T09:40:49;14.45;;;9.00;;
35715;SDS011;21840;44.920;8.616;2023-07-08T09:45:51;18.30;;;9.63;;
35715;SDS011;21840;44.920;8.616;2023-07-08T09:48:27;15.60;;;9.43;;
35715;SDS011;21840;44.920;8.616;2023-07-08T09:50:56;13.13;;;9.10;;
35715;SDS011;21840;44.920;8.616;2023-07-08T09:53:23;12.27;;;8.48;;
35715;SDS011;21840;44.920;8.616;2023-07-08T09:55:51;15.35;;;8.60;;
35715;SDS011;21840;44.920;8.616;2023-07-08T09:58:40;18.33;;;9.25;;
35715;SDS011;21840;44.920;8.616;2023-07-08T10:01:09;16.90;;;9.40;;
35715;SDS011;21840;44.920;8.616;2023-07-08T10:03:37;15.27;;;8.65;;
35715;SDS011;21840;44.920;8.616;2023-07-08T10:06:06;14.10;;;9.18;;
35715;SDS011;21840;44.920;8.616;2023-07-08T10:08:42;15.88;;;8.75;;
35715;SDS011;21840;44.920;8.616;2023-07-08T10:14:01;13.35;;;9.13;;
35715;SDS011;21840;44.920;8.616;2023-07-08T10:16:32;15.05;;;9.00;;
35715;SDS011;21840;44.920;8.616;2023-07-08T10:18:59;13.38;;;8.85;;
35715;SDS011;21840;44.920;8.616;2023-07-08T10:21:34;14.35;;;8.00;;
35715;SDS011;21840;44.920;8.616;2023-07-08T10:28:19;16.23;;;8.60;;
35715;SDS011;21840;44.920;8.616;2023-07-08T10:45:40;12.52;;;8.18;;
35715;SDS011;21840;44.920;8.616;2023-07-08T10:59:41;17.58;;;8.57;;
35715;SDS011;21840;44.920;8.616;2023-07-08T11:02:26;10.32;;;7.80;;
35715;SDS011;21840;44.920;8.616;2023-07-08T11:08:17;14.68;;;8.40;;
35715;SDS011;21840;44.920;8.616;2023-07-08T11:13:25;14.35;;;7.88;;
35715;SDS011;21840;44.920;8.616;2023-07-08T11:15:59;18.08;;;7.70;;
35715;SDS011;21840;44.920;8.616;2023-07-08T11:21:13;14.52;;;8.32;;
35715;SDS011;21840;44.920;8.616;2023-07-08T11:26:23;14.55;;;7.20;;
35715;SDS011;21840;44.920;8.616;2023-07-08T11:28:49;14.73;;;8.00;;
35715;SDS011;21840;44.920;8.616;2023-07-08T11:31:18;14.10;;;7.78;;
35715;SDS011;21840;44.920;8.616;2023-07-08T11:33:45;23.58;;;8.73;;
35715;SDS011;21840;44.920;8.616;2023-07-08T11:36:12;11.45;;;6.75;;
35715;SDS011;21840;44.920;8.616;2023-07-08T11:38:50;12.15;;;7.40;;
35715;SDS011;21840;44.920;8.616;2023-07-08T11:41:26;13.85;;;8.73;;
35715;SDS011;21840;44.920;8.616;2023-07-08T11:43:57;15.65;;;7.10;;
35715;SDS011;21840;44.920;8.616;2023-07-08T11:46:28;14.35;;;7.68;;
35715;SDS011;21840;44.920;8.616;2023-07-08T11:49:06;12.57;;;7.82;;
35715;SDS011;21840;44.920;8.616;2023-07-08T11:51:40;13.30;;;7.72;;
35715;SDS011;21840;44.920;8.616;2023-07-08T11:54:13;11.75;;;8.15;;
35715;SDS011;21840;44.920;8.616;2023-07-08T11:56:49;12.65;;;7.78;;
35715;SDS011;21840;44.920;8.616;2023-07-08T11:59:21;12.27;;;6.97;;
35715;SDS011;21840;44.920;8.616;2023-07-08T12:02:10;13.50;;;7.00;;
35715;SDS011;21840;44.920;8.616;2023-07-08T12:07:40;11.15;;;7.25;;
35715;SDS011;21840;44.920;8.616;2023-07-08T12:10:13;12.18;;;6.68;;
35715;SDS011;21840;44.920;8.616;2023-07-08T12:12:43;14.65;;;7.00;;
35715;SDS011;21840;44.920;8.616;2023-07-08T12:15:12;9.50;;;6.35;;
35715;SDS011;21840;44.920;8.616;2023-07-08T12:17:38;9.82;;;6.18;;
35715;SDS011;21840;44.920;8.616;2023-07-08T12:20:06;14.88;;;7.07;;
35715;SDS011;21840;44.920;8.616;2023-07-08T12:22:41;9.90;;;5.75;;
35715;SDS011;21840;44.920;8.616;2023-07-08T12:25:09;13.60;;;6.40;;
35715;SDS011;21840;44.920;8.616;2023-07-08T12:27:38;12.05;;;7.07;;
35715;SDS011;21840;44.920;8.616;2023-07-08T12:30:04;17.25;;;6.30;;
35715;SDS011;21840;44.920;8.616;2023-07-08T12:32:30;10.52;;;6.07;;
35715;SDS011;21840;44.920;8.616;2023-07-08T12:34:55;11.23;;;6.63;;
35715;SDS011;21840;44.920;8.616;2023-07-08T12:37:21;7.93;;;5.45;;
35715;SDS011;21840;44.920;8.616;2023-07-08T12:39:54;9.00;;;5.82;;
35715;SDS011;21840;44.920;8.616;2023-07-08T12:42:21;11.82;;;6.70;;
35715;SDS011;21840;44.920;8.616;2023-07-08T12:44:47;10.40;;;5.63;;
35715;SDS011;21840;44.920;8.616;2023-07-08T12:47:13;7.53;;;5.28;;
35715;SDS011;21840;44.920;8.616;2023-07-08T12:49:39;9.45;;;5.40;;
35715;SDS011;21840;44.920;8.616;2023-07-08T12:52:04;8.30;;;6.22;;
35715;SDS011;21840;44.920;8.616;2023-07-08T12:54:30;8.70;;;5.95;;
35715;SDS011;21840;44.920;8.616;2023-07-08T12:56:56;9.23;;;5.70;;
35715;SDS011;21840;44.920;8.616;2023-07-08T12:59:22;10.35;;;5.60;;
35715;SDS011;21840;44.920;8.616;2023-07-08T13:01:49;8.75;;;5.65;;
35715;SDS011;21840;44.920;8.616;2023-07-08T13:04:15;8.43;;;5.72;;
35715;SDS011;21840;44.920;8.616;2023-07-08T13:06:42;8.07;;;5.00;;
35715;SDS011;21840;44.920;8.616;2023-07-08T13:09:24;14.18;;;5.63;;
35715;SDS011;21840;44.920;8.616;2023-07-08T13:12:05;9.38;;;5.60;;
35715;SDS011;21840;44.920;8.616;2023-07-08T13:14:51;8.32;;;5.43;;
35715;SDS011;21840;44.920;8.616;2023-07-08T13:17:19;9.23;;;5.38;;
35715;SDS011;21840;44.920;8.616;2023-07-08T13:19:45;9.90;;;5.32;;
35715;SDS011;21840;44.920;8.616;2023-07-08T13:22:15;10.50;;;5.75;;
35715;SDS011;21840;44.920;8.616;2023-07-08T13:24:43;8.48;;;5.18;;
35715;SDS011;21840;44.920;8.616;2023-07-08T13:27:14;11.27;;;5.30;;
35715;SDS011;21840;44.920;8.616;2023-07-08T13:29:45;7.55;;;5.85;;
35715;SDS011;21840;44.920;8.616;2023-07-08T13:32:11;12.88;;;5.63;;
35715;SDS011;21840;44.920;8.616;2023-07-08T13:34:36;7.63;;;5.68;;
35715;SDS011;21840;44.920;8.616;2023-07-08T13:37:04;5.93;;;4.88;;
35715;SDS011;21840;44.920;8.616;2023-07-08T13:39:36;12.02;;;5.57;;
35715;SDS011;21840;44.920;8.616;2023-07-08T13:42:02;9.80;;;5.07;;
35715;SDS011;21840;44.920;8.616;2023-07-08T13:44:29;10.18;;;5.63;;
35715;SDS011;21840;44.920;8.616;2023-07-08T13:46:56;8.82;;;5.10;;
35715;SDS011;21840;44.920;8.616;2023-07-08T13:49:24;8.85;;;5.82;;
35715;SDS011;21840;44.920;8.616;2023-07-08T13:52:06;9.63;;;5.13;;
35715;SDS011;21840;44.920;8.616;2023-07-08T13:54:46;6.78;;;5.10;;
35715;SDS011;21840;44.920;8.616;2023-07-08T13:57:21;11.00;;;5.60;;
35715;SDS011;21840;44.920;8.616;2023-07-08T13:59:49;9.88;;;5.70;;
35715;SDS011;21840;44.920;8.616;2023-07-08T14:02:16;8.52;;;4.93;;
35715;SDS011;21840;44.920;8.616;2023-07-08T14:04:45;12.00;;;5.75;;
35715;SDS011;21840;44.920;8.616;2023-07-08T14:07:16;9.05;;;4.82;;
35715;SDS011;21840;44.920;8.616;2023-07-08T14:09:53;11.60;;;4.82;;
35715;SDS011;21840;44.920;8.616;2023-07-08T14:12:19;10.40;;;4.90;;
35715;SDS011;21840;44.920;8.616;2023-07-08T14:14:45;6.88;;;4.60;;
35715;SDS011;21840;44.920;8.616;2023-07-08T14:17:12;11.32;;;4.78;;
35715;SDS011;21840;44.920;8.616;2023-07-08T14:19:44;7.60;;;5.00;;
35715;SDS011;21840;44.920;8.616;2023-07-08T14:24:41;11.13;;;5.00;;
35715;SDS011;21840;44.920;8.616;2023-07-08T14:27:07;9.82;;;4.82;;
35715;SDS011;21840;44.920;8.616;2023-07-08T14:29:37;5.97;;;4.50;;
35715;SDS011;21840;44.920;8.616;2023-07-08T14:32:03;6.68;;;4.45;;
35715;SDS011;21840;44.920;8.616;2023-07-08T14:34:29;10.77;;;5.07;;
35715;SDS011;21840;44.920;8.616;2023-07-08T14:36:55;7.75;;;4.65;;
35715;SDS011;21840;44.920;8.616;2023-07-08T14:39:20;7.78;;;4.70;;
35715;SDS011;21840;44.920;8.616;2023-07-08T14:41:47;6.50;;;4.55;;
35715;SDS011;21840;44.920;8.616;2023-07-08T14:46:46;9.27;;;4.82;;
35715;SDS011;21840;44.920;8.616;2023-07-08T14:49:15;10.90;;;4.63;;
35715;SDS011;21840;44.920;8.616;2023-07-08T14:51:42;11.48;;;4.93;;
35715;SDS011;21840;44.920;8.616;2023-07-08T14:54:07;11.75;;;5.13;;
35715;SDS011;21840;44.920;8.616;2023-07-08T14:56:33;6.95;;;4.60;;
35715;SDS011;21840;44.920;8.616;2023-07-08T14:58:58;9.85;;;4.40;;
35715;SDS011;21840;44.920;8.616;2023-07-08T15:01:24;7.20;;;4.75;;
35715;SDS011;21840;44.920;8.616;2023-07-08T15:03:52;7.10;;;4.82;;
35715;SDS011;21840;44.920;8.616;2023-07-08T15:06:19;8.73;;;4.95;;
35715;SDS011;21840;44.920;8.616;2023-07-08T15:08:48;9.13;;;4.60;;
35715;SDS011;21840;44.920;8.616;2023-07-08T15:11:13;9.15;;;4.90;;
35715;SDS011;21840;44.920;8.616;2023-07-08T15:13:40;6.85;;;4.50;;
35715;SDS011;21840;44.920;8.616;2023-07-08T15:16:14;6.40;;;5.05;;
35715;SDS011;21840;44.920;8.616;2023-07-08T15:18:41;11.02;;;4.53;;
35715;SDS011;21840;44.920;8.616;2023-07-08T15:21:13;6.60;;;4.13;;
35715;SDS011;21840;44.920;8.616;2023-07-08T15:23:40;11.00;;;4.47;;
35715;SDS011;21840;44.920;8.616;2023-07-08T15:26:10;10.77;;;4.25;;
35715;SDS011;21840;44.920;8.616;2023-07-08T15:31:02;5.35;;;4.20;;
35715;SDS011;21840;44.920;8.616;2023-07-08T15:33:28;7.38;;;4.43;;
35715;SDS011;21840;44.920;8.616;2023-07-08T15:35:57;6.82;;;4.43;;
35715;SDS011;21840;44.920;8.616;2023-07-08T15:38:22;6.90;;;4.35;;
35715;SDS011;21840;44.920;8.616;2023-07-08T15:40:48;7.18;;;4.18;;
35715;SDS011;21840;44.920;8.616;2023-07-08T15:43:14;7.25;;;4.30;;
35715;SDS011;21840;44.920;8.616;2023-07-08T15:45:40;5.50;;;3.95;;
35715;SDS011;21840;44.920;8.616;2023-07-08T15:48:13;4.28;;;3.70;;
35715;SDS011;21840;44.920;8.616;2023-07-08T15:50:40;7.65;;;3.55;;
35715;SDS011;21840;44.920;8.616;2023-07-08T15:53:05;8.50;;;4.07;;
35715;SDS011;21840;44.920;8.616;2023-07-08T15:55:31;7.22;;;3.90;;